• Join FlightAware (Why Join?)
  • Login
  • US Flag 
05:21PM EST


 

Airport Tracker/Info


-or-


 

Live Flight TrackerFlight Track Log ✈ SKW5618 ✈ 09-May-2013 ✈ KDFW - KSFO

Flight Track Log - Related Links

Times and Time Zones

All times are in EDT time to prevent confusion due to time zone crossing. See the SKW5618 flight status page for this flight to view local times or setup timezone preferences in your user account.

Time Position Orientation Groundspeed Altitude Reporting Facility
EDT Latitude Longitude Course Direction KTS MPH feet Rate Location/Type
04:58PM 32.8833 -97.0500 301° West 218 251 1,400  Level Dallas / Fort Worth TRACON
05:00PM 32.8000 -97.0833 199° South 179 206 5,000 2,040 Climbing Dallas / Fort Worth TRACON
05:01PM 32.8107 -97.3323 298° West  Level FlightAware Approximate
05:01PM 32.7667 -97.1167 220° Southwest 257 296 6,600  Level Dallas / Fort Worth TRACON
05:02PM 32.8620 -97.4622 293° West  Level FlightAware Approximate
05:02PM 32.7500 -97.2167 259° West 250 288 9,500  Level Dallas / Fort Worth TRACON
05:02PM 32.7478 -97.2653 267° West 255 293 10,000 1,440 Climbing Fort Worth Center
05:03PM 32.9128 -97.5923 301° West  Level FlightAware Approximate
05:03PM 32.7769 -97.3294 298° West 255 293 11,800  Level Fort Worth Center
05:04PM 32.8167 -97.4061 302° West 250 288 14,200 1,920 Climbing Fort Worth Center
05:05PM 32.8458 -97.4653 300° West 255 293 15,700 1,920 Climbing Fort Worth Center
05:06PM 32.8917 -97.5594 300° West 267 307 18,100 2,040 Climbing Fort Worth Center
05:07PM 32.9314 -97.6361 302° West 267 307 19,900 1,380 Climbing Fort Worth Center
05:08PM 32.9728 -97.7206 300° West 286 329 20,900 900 Climbing Fort Worth Center
05:09PM 32.9914 -97.8097 284° West 286 329 21,700 360 Climbing Fort Worth Center
05:10PM 33.0078 -97.9114 281° West 303 349 21,700 300 Level Fort Worth Center
05:11PM 33.0322 -98.0256 284° West 339 390 22,400 1,020 Climbing Fort Worth Center
05:12PM 33.0733 -98.1422 293° West 376 433 23,800 1,020 Climbing Fort Worth Center
05:13PM 33.1122 -98.2592 292° West 381 438 24,500 960 Climbing Fort Worth Center
05:14PM 33.1531 -98.3836 291° West 395 455 25,800 900 Climbing Fort Worth Center
05:15PM 33.1897 -98.4933 292° West 395 455 26,300 780 Climbing Fort Worth Center
05:16PM 33.2344 -98.6228 292° West 405 466 27,400 1,320 Climbing Fort Worth Center
05:17PM 33.2750 -98.7503 291° West 410 472 29,000 1,260 Climbing Fort Worth Center
05:18PM 33.3153 -98.8750 291° West 410 472 30,000 1,020 Climbing Fort Worth Center
05:19PM 33.3575 -99.0050 291° West 410 472 31,100 960 Climbing Fort Worth Center
05:20PM 33.3978 -99.1328 291° West 410 472 32,000 960 Climbing Fort Worth Center
05:21PM 33.4417 -99.2581 293° West 410 472 33,100 1,200 Climbing Fort Worth Center
05:22PM 33.4817 -99.3808 291° West 410 472 34,500 960 Climbing Fort Worth Center
05:23PM 33.5194 -99.5014 291° West 404 465 35,100 600 Climbing Fort Worth Center
05:24PM 33.5589 -99.6244 291° West 399 459 35,700 720 Climbing Fort Worth Center
05:25PM 33.5964 -99.7450 291° West 394 453 36,600 600 Climbing Fort Worth Center
05:26PM 33.6336 -99.8683 290° West 394 453 36,900 300 Climbing Fort Worth Center
05:27PM 33.6708 -99.9917 290° West 394 453 37,300 600 Climbing Fort Worth Center
05:28PM 33.7103 -100.1103 292° West 389 448 38,100 300 Climbing Fort Worth Center
05:29PM 33.7469 -100.2336 290° West 389 448 38,000 -60 Descending Fort Worth Center
05:30PM 33.7839 -100.3550 290° West 389 448 38,000  Level Fort Worth Center
05:31PM 33.8250 -100.4736 293° West 389 448 38,000  Level Fort Worth Center
05:32PM 33.8639 -100.5903 292° West 389 448 38,000  Level Fort Worth Center
05:33PM 33.9047 -100.7042 293° West 384 442 38,000  Level Fort Worth Center
05:34PM 33.9367 -100.8281 287° West 379 436 38,000  Level Fort Worth Center
05:35PM 33.9775 -100.9400 294° West 374 430 38,000  Level Fort Worth Center
05:36PM 34.0197 -101.0644 292° West 372 428 38,000  Level Fort Worth Center
05:37PM 34.0522 -101.1711 290° West 375 432 38,000  Level Fort Worth Center
05:38PM 34.0900 -101.2981 290° West 375 432 38,000  Level Fort Worth Center
05:39PM 34.1178 -101.4097 287° West 380 437 38,000  Level Fort Worth Center
05:40PM 34.1553 -101.5444 289° West 385 443 38,000  Level Fort Worth Center
05:41PM 34.1975 -101.6544 295° West 397 457 38,000  Level Fort Worth Center
05:43PM 34.2697 -101.8353 296° West 406 467 38,000  Level Albuquerque Center
05:44PM 34.3192 -101.9639 295° West 414 476 38,000  Level Albuquerque Center
05:45PM 34.3789 -102.1181 295° West 419 482 38,000  Level Albuquerque Center
05:46PM 34.4258 -102.2450 294° West 416 479 38,000  Level Albuquerque Center
05:47PM 34.4756 -102.3708 296° West 414 476 38,000  Level Albuquerque Center
05:48PM 34.5222 -102.4964 294° West 409 471 38,000  Level Albuquerque Center
05:49PM 34.5700 -102.6219 295° West 408 470 38,000  Level Albuquerque Center
05:50PM 34.6172 -102.7461 295° West 409 471 38,000  Level Albuquerque Center
05:51PM 34.6725 -102.8939 294° West 408 470 38,000  Level Albuquerque Center
05:52PM 34.7211 -103.0200 295° West 408 470 38,000  Level Albuquerque Center
05:53PM 34.7664 -103.1458 294° West 404 465 38,000  Level Albuquerque Center
05:54PM 34.8131 -103.2711 294° West 403 464 38,000  Level Albuquerque Center
05:55PM 34.8603 -103.3964 295° West 403 464 38,000  Level Albuquerque Center
05:56PM 34.9053 -103.5206 294° West 399 459 38,000  Level Albuquerque Center
05:57PM 34.9514 -103.6456 294° West 400 460 38,000  Level Albuquerque Center
05:58PM 34.9967 -103.7697 294° West 399 459 38,000  Level Albuquerque Center
05:59PM 35.0428 -103.8961 294° West 402 463 38,000  Level Albuquerque Center
06:00PM 35.0975 -104.0431 295° West 409 471 38,000  Level Albuquerque Center
06:01PM 35.1436 -104.1714 294° West 412 474 38,000  Level Albuquerque Center
06:02PM 35.1889 -104.2992 293° West 411 473 38,000  Level Albuquerque Center
06:03PM 35.2358 -104.4281 294° West 414 476 38,000  Level Albuquerque Center
06:05PM 35.2869 -104.5772 293° West 420 483 38,000  Level Albuquerque Center
06:06PM 35.3336 -104.7108 293° West 423 487 38,000  Level Albuquerque Center
06:07PM 35.3811 -104.8436 294° West 423 487 38,000  Level Albuquerque Center
06:08PM 35.4275 -104.9769 293° West 421 484 38,000  Level Albuquerque Center
06:09PM 35.4739 -105.1086 293° West 419 482 38,000  Level Albuquerque Center
06:10PM 35.5186 -105.2406 293° West 416 479 38,000  Level Albuquerque Center
06:11PM 35.5650 -105.3714 294° West 414 476 38,000  Level Albuquerque Center
06:12PM 35.6089 -105.5019 292° West 413 475 38,000  Level Albuquerque Center
06:13PM 35.6583 -105.6392 294° West 412 474 38,000  Level Albuquerque Center
06:14PM 35.7033 -105.7681 293° West 412 474 38,100  Climbing Albuquerque Center
06:15PM 35.7475 -105.8986 293° West 414 476 38,000 -60 Descending Albuquerque Center
06:16PM 35.7917 -106.0278 293° West 413 475 38,000  Level Albuquerque Center
06:17PM 35.8444 -106.1839 293° West 413 475 38,000  Level Albuquerque Center
06:18PM 35.8875 -106.3083 293° West 419 482 38,100  Climbing Albuquerque Center
06:19PM 35.9328 -106.4458 292° West 413 475 38,000 -60 Descending Albuquerque Center
06:20PM 35.9767 -106.5761 293° West 413 475 38,000  Level Albuquerque Center
06:21PM 36.0197 -106.7078 292° West 415 478 38,000  Level Albuquerque Center
06:22PM 36.0636 -106.8372 293° West 412 474 38,000  Level Albuquerque Center
06:23PM 36.1156 -106.9944 292° West 413 475 38,000  Level Albuquerque Center
06:24PM 36.1589 -107.1269 292° West 415 478 38,000  Level Albuquerque Center
06:25PM 36.2061 -107.2731 292° West 415 478 38,000  Level Albuquerque Center
06:26PM 36.2469 -107.4006 292° West 416 479 38,000  Level Albuquerque Center
06:27PM 36.2953 -107.5492 292° West 417 480 38,000  Level Albuquerque Center
06:28PM 36.3375 -107.6764 292° West 417 480 38,000  Level Albuquerque Center
06:29PM 36.3781 -107.8053 291° West 419 482 38,000  Level Albuquerque Center
06:30PM 36.4169 -107.9322 291° West 417 480 38,000  Level Denver Center
06:31PM 36.4592 -108.0625 292° West 425 489 38,000  Level Denver Center
06:32PM 36.5078 -108.2144 292° West 425 489 38,000  Level Denver Center
06:33PM 36.5481 -108.3436 291° West 423 487 38,000  Level Denver Center
06:34PM 36.5956 -108.4964 291° West 425 489 38,000  Level Denver Center
06:35PM 36.6361 -108.6264 291° West 426 490 38,000  Level Denver Center
06:36PM 36.6831 -108.7817 291° West 429 494 38,000  Level Denver Center
06:37PM 36.7244 -108.9108 292° West 425 489 38,000  Level Denver Center
06:39PM 36.7711 -109.0661 291° West 430 495 38,000  Level Denver Center
06:40PM 36.8256 -109.2431 291° West 431 496 38,000  Level Denver Center
06:41PM 36.8656 -109.3772 290° West 432 497 38,000  Level Denver Center
06:42PM 36.9128 -109.5336 291° West 433 498 38,000  Level Denver Center
06:43PM 36.9531 -109.6686 291° West 433 498 38,000  Level Denver Center
06:44PM 37.0003 -109.8258 291° West 434 499 38,000  Level Denver Center
06:45PM 37.0408 -109.9611 291° West 435 501 38,000  Level Denver Center
06:46PM 37.0872 -110.1197 290° West 437 503 38,000  Level Denver Center
06:47PM 37.1256 -110.2494 290° West 435 501 38,000  Level Denver Center
06:48PM 37.1678 -110.3922 290° West 436 502 38,000  Level Denver Center
06:49PM 37.2175 -110.5647 290° West 439 505 38,000  Level Denver Center
06:50PM 37.2578 -110.7075 290° West 437 503 38,000  Level Denver Center
06:51PM 37.2925 -110.8231 291° West 441 507 38,000  Level Denver Center
06:52PM 37.3406 -110.9950 289° West 437 503 38,000  Level Denver Center
06:53PM 37.3817 -111.1397 290° West 440 506 38,000  Level Denver Center
06:54PM 37.4242 -111.2839 290° West 442 509 38,000  Level Denver Center
06:55PM 37.4808 -111.4875 289° West 442 509 38,000  Level Denver Center
06:56PM 37.5211 -111.6328 289° West 442 509 38,000  Level Denver Center
06:58PM 37.5622 -111.7778 290° West 442 509 38,000  Level Denver Center
06:58PM 37.5947 -111.8950 289° West 444 511 38,000  Level Salt Lake Center
07:00PM 37.6583 -112.1275 289° West 441 507 38,000  Level Denver Center
07:00PM 37.6747 -112.1861 289° West 441 507 38,000  Level Salt Lake Center
07:01PM 37.7147 -112.3306 289° West 440 506 38,000  Level Salt Lake Center
07:02PM 37.7617 -112.5061 289° West 442 509 38,000  Level Salt Lake Center
07:03PM 37.8003 -112.6517 289° West 442 509 38,000  Level Salt Lake Center
07:04PM 37.8394 -112.7972 289° West 444 511 38,000  Level Salt Lake Center
07:05PM 37.8769 -112.9431 288° West 444 511 38,000  Level Salt Lake Center
07:06PM 37.9164 -113.0897 289° West 444 511 38,000  Level Salt Lake Center
07:07PM 37.9130 -113.0947 289° West  Level FlightAware Approximate
07:07PM 37.9542 -113.2367 288° West 444 511 38,000  Level Salt Lake Center
07:08PM 37.9997 -113.4144 288° West 445 512 38,000  Level Salt Lake Center
07:09PM 38.0375 -113.5625 288° West 444 511 38,000  Level Salt Lake Center
07:11PM 38.0761 -113.7117 288° West 446 513 38,000  Level Salt Lake Center
07:12PM 38.1142 -113.8600 288° West 445 512 38,000  Level Salt Lake Center
07:13PM 38.1544 -114.0067 289° West 442 509 38,000  Level Salt Lake Center
07:14PM 38.1908 -114.1558 287° West 444 511 38,100  Climbing Salt Lake Center
07:15PM 38.2286 -114.3039 288° West 442 509 38,000 -60 Descending Salt Lake Center
07:16PM 38.2458 -114.4869 277° West 444 511 38,000  Level Salt Lake Center
07:17PM 38.2367 -114.6439 266° West 447 514 38,000  Level Salt Lake Center
07:18PM 38.2264 -114.8014 265° West 448 516 38,000  Level Salt Lake Center
07:19PM 38.2161 -114.9567 265° West 443 510 38,000  Level Salt Lake Center
07:20PM 38.2064 -115.1122 266° West 443 510 38,000  Level Salt Lake Center
07:21PM 38.1964 -115.2681 265° West 444 511 38,000  Level Salt Lake Center
07:22PM 38.1842 -115.4450 265° West 442 509 38,000  Level Salt Lake Center
07:23PM 38.1725 -115.6006 265° West 441 507 38,000  Level Salt Lake Center
07:24PM 38.1625 -115.7572 265° West 445 512 38,000  Level Salt Lake Center
07:25PM 38.1514 -115.9133 265° West 445 512 38,000  Level Salt Lake Center
07:26PM 38.1397 -116.0711 265° West 448 516 38,000  Level Salt Lake Center
07:27PM 38.1283 -116.2278 265° West 447 514 38,000  Level Salt Lake Center
07:28PM 38.1169 -116.3847 265° West 447 514 38,000  Level Salt Lake Center
07:29PM 38.1019 -116.5733 264° West 449 517 38,000  Level Salt Lake Center
07:30PM 38.0897 -116.7303 264° West 447 514 38,000  Level Salt Lake Center
07:31PM 38.0778 -116.8883 265° West 447 514 38,000  Level Salt Lake Center
07:31PM 38.0750 -116.9200 264° West 447 514 38,000  Level Oakland Center
07:32PM 38.0622 -117.0792 264° West 448 516 38,000  Level Oakland Center
07:33PM 38.0514 -117.2103 264° West 449 517 38,000  Level Salt Lake Center
07:33PM 38.0475 -117.2439 262° West 453 521 38,000  Level Oakland Center
07:34PM 38.0350 -117.4050 264° West 452 520 38,000  Level Oakland Center
07:35PM 38.0214 -117.5628 264° West 448 516 38,000  Level Oakland Center
07:36PM 38.0072 -117.7222 264° West 450 518 38,000  Level Oakland Center
07:38PM 37.9889 -117.9139 263° West 457 526 38,000  Level Oakland Center
07:39PM 37.9708 -118.0739 262° West 457 526 38,000  Level Oakland Center
07:40PM 37.9531 -118.2353 262° West 461 531 38,000  Level Oakland Center
07:41PM 37.9361 -118.3967 262° West 463 533 38,000  Level Oakland Center
07:42PM 37.9181 -118.5581 262° West 462 532 38,000 -600 Level Oakland Center
07:43PM 37.9006 -118.7194 262° West 463 533 36,800 -1,020 Descending Oakland Center
07:44PM 37.8950 -118.8825 268° West 464 534 36,000 -420 Descending Oakland Center
07:45PM 37.9083 -119.0350 276° West 443 510 36,000  Level Oakland Center
07:46PM 37.9181 -119.1872 275° West 434 499 36,100  Climbing Oakland Center
07:47PM 37.9292 -119.3436 275° West 442 509 36,000 -60 Descending Oakland Center
07:48PM 37.9361 -119.4981 273° West 441 507 36,000  Level Oakland Center
07:49PM 37.8811 -119.6781 249° West 453 521 36,000  Level Oakland Center
07:50PM 37.8283 -119.8231 245° Southwest 452 520 36,000  Level Oakland Center
07:51PM 37.7953 -119.9667 254° West 433 498 36,000  Level Oakland Center
07:52PM 37.7708 -120.1131 258° West 426 490 36,000 -600 Level Oakland Center
07:53PM 37.7456 -120.2650 258° West 439 505 34,800 -2,100 Descending Oakland Center
07:54PM 37.7186 -120.4253 258° West 459 528 31,800 -2,940 Descending Oakland Center
07:55PM 37.6914 -120.5867 258° West 467 537 28,800 -3,180 Descending Oakland Center
07:56PM 37.6667 -120.7333 258° West 473 544 26,100 -3,180 Descending Northern Cal TRACON
07:57PM 37.6333 -120.8833 254° West 468 539 23,200 -3,000 Descending Northern Cal TRACON
07:58PM 37.6167 -121.0167 261° West 460 529 20,500 -3,000 Descending Northern Cal TRACON
07:59PM 37.6000 -121.1833 263° West 436 502 17,200 -3,000 Descending Northern Cal TRACON
08:00PM 37.5833 -121.3333 262° West 413 475 14,300 -3,000 Descending Northern Cal TRACON
08:01PM 37.5667 -121.4667 261° West 394 453 11,200 -1,680 Descending Northern Cal TRACON
08:02PM 37.5500 -121.5833 260° West 330 380 11,000 -120 Descending Northern Cal TRACON
08:03PM 37.5333 -121.6833 258° West 257 296 11,000 -600 Level Northern Cal TRACON
08:04PM 37.5167 -121.7667 256° West 261 300 9,800 -1,320 Descending Northern Cal TRACON
08:05PM 37.5000 -121.8500 256° West 262 302 8,400 -1,440 Descending Northern Cal TRACON
08:06PM 37.4833 -121.9333 256° West 253 291 7,000 -1,200 Descending Northern Cal TRACON
08:07PM 37.5000 -122.0167 284° West 231 266 6,100 -1,020 Descending Northern Cal TRACON
08:08PM 37.5167 -122.0833 288° West 194 223 5,000 -1,200 Descending Northern Cal TRACON
08:09PM 37.5500 -122.1333 310° West 184 212 3,800 -1,080 Descending Northern Cal TRACON
08:09PM 37.5517 -122.1653 274° West 188 216 3,400 -780 Descending Oakland Center